X  Κλείσε Στοιχεία αεροπορικών μετεωρολογικών δεδομένων METAR     EIDW Dublin Airport
θερμοκρασία
14°C θερμοκρασία
8°C Σημείο δρόσου
67% Υγρασία



Ανεμος
19 KM/H
12 MPH
5 M/S
10 KTS



200°
NND
Τρέχουσες συνθήκες

Μερικώς συννεφιασμένος Μερικώς συννεφιασμένος
πίεση 1011.92 (hPa) - 29.88 (inHg)
Ορατότητα 6.2 (μίλι) - 10 (km)
Aεροδρόμιο
Κωδικός αεροδρομίου EIDW

Τοποθεσία: Dublin Airport
Απόσταση: 17 (km)

Metar:
EIDW 271830Z 20010KT 120V250 9999 FEW018 SCT031 BKN110 14/08 Q1012 NOSIG

ώρα: 27-06-2022 19:30 IST